sensor_id;sensor_type;location;lat;lon;timestamp;pressure;altitude;pressure_sealevel;temperature;humidity
48668;BME280;34453;52.198;5.004;2023-05-19T00:01:36;102964.13;;;9.13;100.00
48668;BME280;34453;52.198;5.004;2023-05-19T00:04:02;102956.63;;;9.07;100.00
48668;BME280;34453;52.198;5.004;2023-05-19T00:06:31;102954.84;;;9.08;100.00
48668;BME280;34453;52.198;5.004;2023-05-19T00:08:57;102957.22;;;9.12;100.00
48668;BME280;34453;52.198;5.004;2023-05-19T00:11:24;102952.16;;;9.09;100.00
48668;BME280;34453;52.198;5.004;2023-05-19T00:13:52;102952.31;;;9.06;100.00
48668;BME280;34453;52.198;5.004;2023-05-19T00:16:18;102955.16;;;9.02;100.00
48668;BME280;34453;52.198;5.004;2023-05-19T00:18:44;102949.28;;;8.98;100.00
48668;BME280;34453;52.198;5.004;2023-05-19T00:21:09;102951.78;;;9.00;100.00
48668;BME280;34453;52.198;5.004;2023-05-19T00:23:34;102947.41;;;9.00;100.00
48668;BME280;34453;52.198;5.004;2023-05-19T00:26:00;102952.63;;;9.00;100.00
48668;BME280;34453;52.198;5.004;2023-05-19T00:28:25;102946.41;;;9.03;100.00
48668;BME280;34453;52.198;5.004;2023-05-19T00:30:51;102945.72;;;8.99;100.00
48668;BME280;34453;52.198;5.004;2023-05-19T00:33:16;102949.94;;;9.02;100.00
48668;BME280;34453;52.198;5.004;2023-05-19T00:35:41;102947.56;;;8.97;100.00
48668;BME280;34453;52.198;5.004;2023-05-19T00:38:07;102945.56;;;9.02;100.00
48668;BME280;34453;52.198;5.004;2023-05-19T00:40:34;102940.50;;;8.99;100.00
48668;BME280;34453;52.198;5.004;2023-05-19T00:43:00;102944.19;;;8.95;100.00
48668;BME280;34453;52.198;5.004;2023-05-19T00:45:27;102940.66;;;8.96;100.00
48668;BME280;34453;52.198;5.004;2023-05-19T00:47:53;102949.47;;;8.93;100.00
48668;BME280;34453;52.198;5.004;2023-05-19T00:50:18;102955.41;;;8.97;100.00
48668;BME280;34453;52.198;5.004;2023-05-19T00:52:43;102953.56;;;8.99;100.00
48668;BME280;34453;52.198;5.004;2023-05-19T00:55:09;102944.06;;;8.98;100.00
48668;BME280;34453;52.198;5.004;2023-05-19T00:57:36;102952.47;;;9.03;100.00
48668;BME280;34453;52.198;5.004;2023-05-19T01:00:01;102939.56;;;9.00;100.00
48668;BME280;34453;52.198;5.004;2023-05-19T01:02:27;102952.47;;;9.03;100.00
48668;BME280;34453;52.198;5.004;2023-05-19T01:04:55;102955.09;;;9.03;100.00
48668;BME280;34453;52.198;5.004;2023-05-19T01:07:21;102951.53;;;9.04;100.00
48668;BME280;34453;52.198;5.004;2023-05-19T01:09:47;102941.28;;;9.01;100.00
48668;BME280;34453;52.198;5.004;2023-05-19T01:12:14;102948.28;;;9.01;100.00
48668;BME280;34453;52.198;5.004;2023-05-19T01:14:41;102943.56;;;9.07;100.00
48668;BME280;34453;52.198;5.004;2023-05-19T01:17:11;102943.56;;;9.07;100.00
48668;BME280;34453;52.198;5.004;2023-05-19T01:19:49;102935.97;;;9.03;100.00
48668;BME280;34453;52.198;5.004;2023-05-19T01:25:49;102933.13;;;9.07;100.00
48668;BME280;34453;52.198;5.004;2023-05-19T01:31:11;102935.22;;;9.01;100.00
48668;BME280;34453;52.198;5.004;2023-05-19T01:33:38;102936.13;;;9.00;100.00
48668;BME280;34453;52.198;5.004;2023-05-19T01:36:06;102927.63;;;8.96;100.00
48668;BME280;34453;52.198;5.004;2023-05-19T01:38:33;102930.06;;;8.99;100.00
48668;BME280;34453;52.198;5.004;2023-05-19T01:40:59;102921.38;;;8.99;100.00
48668;BME280;34453;52.198;5.004;2023-05-19T01:43:25;102927.44;;;8.99;100.00
48668;BME280;34453;52.198;5.004;2023-05-19T01:45:53;102926.69;;;8.97;100.00
48668;BME280;34453;52.198;5.004;2023-05-19T01:48:19;102924.38;;;8.91;100.00
48668;BME280;34453;52.198;5.004;2023-05-19T01:50:46;102927.34;;;8.85;100.00
48668;BME280;34453;52.198;5.004;2023-05-19T01:53:11;102917.88;;;8.82;100.00
48668;BME280;34453;52.198;5.004;2023-05-19T01:55:51;102926.09;;;8.75;100.00
48668;BME280;34453;52.198;5.004;2023-05-19T01:58:25;102933.69;;;8.79;100.00
48668;BME280;34453;52.198;5.004;2023-05-19T02:00:57;102933.63;;;8.81;100.00
48668;BME280;34453;52.198;5.004;2023-05-19T02:06:29;102928.94;;;8.70;100.00
48668;BME280;34453;52.198;5.004;2023-05-19T02:09:23;102924.56;;;8.70;100.00
48668;BME280;34453;52.198;5.004;2023-05-19T02:12:05;102933.16;;;8.73;100.00
48668;BME280;34453;52.198;5.004;2023-05-19T02:14:39;102932.09;;;8.77;100.00
48668;BME280;34453;52.198;5.004;2023-05-19T02:17:07;102934.69;;;8.77;100.00
48668;BME280;34453;52.198;5.004;2023-05-19T02:19:36;102937.91;;;8.82;100.00
48668;BME280;34453;52.198;5.004;2023-05-19T02:22:03;102933.69;;;8.79;100.00
48668;BME280;34453;52.198;5.004;2023-05-19T02:24:28;102923.25;;;8.79;100.00
48668;BME280;34453;52.198;5.004;2023-05-19T02:26:54;102927.53;;;8.80;100.00
48668;BME280;34453;52.198;5.004;2023-05-19T02:29:19;102916.19;;;8.81;100.00
48668;BME280;34453;52.198;5.004;2023-05-19T02:31:45;102914.72;;;8.76;100.00
48668;BME280;34453;52.198;5.004;2023-05-19T02:34:11;102915.50;;;8.78;100.00
48668;BME280;34453;52.198;5.004;2023-05-19T02:36:38;102910.44;;;8.75;100.00
48668;BME280;34453;52.198;5.004;2023-05-19T02:39:05;102912.22;;;8.74;100.00
48668;BME280;34453;52.198;5.004;2023-05-19T02:41:31;102910.28;;;8.78;100.00
48668;BME280;34453;52.198;5.004;2023-05-19T02:43:56;102917.19;;;8.79;100.00
48668;BME280;34453;52.198;5.004;2023-05-19T02:46:22;102911.34;;;8.74;100.00
48668;BME280;34453;52.198;5.004;2023-05-19T02:48:49;102917.34;;;8.76;100.00
48668;BME280;34453;52.198;5.004;2023-05-19T02:51:14;102912.13;;;8.76;100.00
48668;BME280;34453;52.198;5.004;2023-05-19T02:53:39;102914.50;;;8.80;100.00
48668;BME280;34453;52.198;5.004;2023-05-19T02:56:05;102915.50;;;8.78;100.00
48668;BME280;34453;52.198;5.004;2023-05-19T02:58:30;102909.19;;;8.82;100.00
48668;BME280;34453;52.198;5.004;2023-05-19T03:00:56;102912.66;;;8.82;100.00
48668;BME280;34453;52.198;5.004;2023-05-19T03:03:21;102910.03;;;8.82;100.00
48668;BME280;34453;52.198;5.004;2023-05-19T03:05:47;102903.84;;;8.85;100.00
48668;BME280;34453;52.198;5.004;2023-05-19T03:08:13;102905.69;;;8.83;100.00
48668;BME280;34453;52.198;5.004;2023-05-19T03:10:38;102897.47;;;8.73;100.00
48668;BME280;34453;52.198;5.004;2023-05-19T03:13:04;102896.41;;;8.60;100.00
48668;BME280;34453;52.198;5.004;2023-05-19T03:15:29;102904.09;;;8.63;100.00
48668;BME280;34453;52.198;5.004;2023-05-19T03:17:55;102905.16;;;8.59;100.00
48668;BME280;34453;52.198;5.004;2023-05-19T03:20:21;102900.63;;;8.62;100.00
48668;BME280;34453;52.198;5.004;2023-05-19T03:22:46;102903.75;;;8.69;100.00
48668;BME280;34453;52.198;5.004;2023-05-19T03:25:12;102903.75;;;8.69;100.00
48668;BME280;34453;52.198;5.004;2023-05-19T03:27:37;102889.28;;;8.63;100.00
48668;BME280;34453;52.198;5.004;2023-05-19T03:30:03;102893.56;;;8.64;100.00
48668;BME280;34453;52.198;5.004;2023-05-19T03:32:29;102893.88;;;8.58;100.00
48668;BME280;34453;52.198;5.004;2023-05-19T03:34:57;102887.91;;;8.56;100.00
48668;BME280;34453;52.198;5.004;2023-05-19T03:37:22;102898.34;;;8.56;100.00
48668;BME280;34453;52.198;5.004;2023-05-19T03:39:47;102896.50;;;8.58;100.00
48668;BME280;34453;52.198;5.004;2023-05-19T03:42:13;102892.19;;;8.57;100.00
48668;BME280;34453;52.198;5.004;2023-05-19T03:44:38;102890.50;;;8.56;100.00
48668;BME280;34453;52.198;5.004;2023-05-19T03:47:04;102895.41;;;8.62;100.00
48668;BME280;34453;52.198;5.004;2023-05-19T03:49:30;102894.44;;;8.65;100.00
48668;BME280;34453;52.198;5.004;2023-05-19T03:51:55;102898.63;;;8.67;100.00
48668;BME280;34453;52.198;5.004;2023-05-19T03:54:20;102887.97;;;8.72;100.00
48668;BME280;34453;52.198;5.004;2023-05-19T03:56:47;102886.13;;;8.74;100.00
48668;BME280;34453;52.198;5.004;2023-05-19T03:59:12;102898.16;;;8.77;100.00
48668;BME280;34453;52.198;5.004;2023-05-19T04:01:38;102888.72;;;8.74;100.00
48668;BME280;34453;52.198;5.004;2023-05-19T04:04:03;102891.09;;;8.79;100.00
48668;BME280;34453;52.198;5.004;2023-05-19T04:06:28;102888.50;;;8.79;100.00
48668;BME280;34453;52.198;5.004;2023-05-19T04:08:55;102885.72;;;8.82;100.00
48668;BME280;34453;52.198;5.004;2023-05-19T04:11:20;102898.75;;;8.82;100.00
48668;BME280;34453;52.198;5.004;2023-05-19T04:13:46;102899.69;;;8.81;100.00
48668;BME280;34453;52.198;5.004;2023-05-19T04:16:11;102900.47;;;8.83;100.00
48668;BME280;34453;52.198;5.004;2023-05-19T04:18:37;102906.28;;;8.88;100.00
48668;BME280;34453;52.198;5.004;2023-05-19T04:21:02;102908.97;;;8.86;100.00
48668;BME280;34453;52.198;5.004;2023-05-19T04:23:28;102902.06;;;8.85;100.00
48668;BME280;34453;52.198;5.004;2023-05-19T04:25:53;102908.13;;;8.86;100.00
48668;BME280;34453;52.198;5.004;2023-05-19T04:28:21;102911.44;;;8.89;100.00
48668;BME280;34453;52.198;5.004;2023-05-19T04:30:48;102914.81;;;8.91;100.00
48668;BME280;34453;52.198;5.004;2023-05-19T04:33:15;102905.50;;;8.86;100.00
48668;BME280;34453;52.198;5.004;2023-05-19T04:35:40;102909.78;;;8.87;100.00
48668;BME280;34453;52.198;5.004;2023-05-19T04:38:07;102908.59;;;8.77;100.00
48668;BME280;34453;52.198;5.004;2023-05-19T04:40:34;102917.88;;;8.82;100.00
48668;BME280;34453;52.198;5.004;2023-05-19T04:42:59;102914.66;;;8.77;100.00
48668;BME280;34453;52.198;5.004;2023-05-19T04:45:26;102910.81;;;8.84;100.00
48668;BME280;34453;52.198;5.004;2023-05-19T04:47:51;102915.19;;;8.84;100.00
48668;BME280;34453;52.198;5.004;2023-05-19T04:50:22;102922.72;;;8.90;100.00
48668;BME280;34453;52.198;5.004;2023-05-19T04:52:47;102917.19;;;8.96;100.00
48668;BME280;34453;52.198;5.004;2023-05-19T04:55:12;102917.47;;;9.07;100.00
48668;BME280;34453;52.198;5.004;2023-05-19T04:57:38;102919.00;;;9.11;100.00
48668;BME280;34453;52.198;5.004;2023-05-19T05:00:04;102914.19;;;9.20;100.00
48668;BME280;34453;52.198;5.004;2023-05-19T05:02:32;102921.53;;;9.29;100.00
48668;BME280;34453;52.198;5.004;2023-05-19T05:04:58;102931.97;;;9.29;100.00
48668;BME280;34453;52.198;5.004;2023-05-19T05:07:23;102931.47;;;9.38;100.00
48668;BME280;34453;52.198;5.004;2023-05-19T05:09:49;102925.53;;;9.36;100.00
48668;BME280;34453;52.198;5.004;2023-05-19T05:12:16;102930.50;;;9.41;100.00
48668;BME280;34453;52.198;5.004;2023-05-19T05:14:42;102934.47;;;9.48;100.00
48668;BME280;34453;52.198;5.004;2023-05-19T05:17:09;102930.31;;;9.60;100.00
48668;BME280;34453;52.198;5.004;2023-05-19T05:19:35;102934.91;;;9.72;100.00
48668;BME280;34453;52.198;5.004;2023-05-19T05:22:00;102938.84;;;9.79;100.00
48668;BME280;34453;52.198;5.004;2023-05-19T05:24:26;102936.56;;;9.89;100.00
48668;BME280;34453;52.198;5.004;2023-05-19T05:26:52;102927.69;;;9.91;100.00
48668;BME280;34453;52.198;5.004;2023-05-19T05:29:18;102933.34;;;10.00;100.00
48668;BME280;34453;52.198;5.004;2023-05-19T05:31:43;102937.97;;;10.10;100.00
48668;BME280;34453;52.198;5.004;2023-05-19T05:34:09;102945.38;;;10.18;100.00
48668;BME280;34453;52.198;5.004;2023-05-19T05:36:35;102932.06;;;10.23;100.00
48668;BME280;34453;52.198;5.004;2023-05-19T05:39:00;102942.09;;;10.30;100.00
48668;BME280;34453;52.198;5.004;2023-05-19T05:41:27;102929.78;;;10.32;100.00
48668;BME280;34453;52.198;5.004;2023-05-19T05:43:53;102918.88;;;10.40;100.00
48668;BME280;34453;52.198;5.004;2023-05-19T05:46:19;102926.66;;;10.56;100.00
48668;BME280;34453;52.198;5.004;2023-05-19T05:48:45;102917.53;;;10.63;100.00
48668;BME280;34453;52.198;5.004;2023-05-19T05:51:11;102923.88;;;10.73;100.00
48668;BME280;34453;52.198;5.004;2023-05-19T05:53:40;102933.16;;;10.79;100.00
48668;BME280;34453;52.198;5.004;2023-05-19T05:56:09;102926.53;;;10.88;100.00
48668;BME280;34453;52.198;5.004;2023-05-19T05:58:35;102933.66;;;10.86;100.00
48668;BME280;34453;52.198;5.004;2023-05-19T06:01:02;102928.69;;;10.95;100.00
48668;BME280;34453;52.198;5.004;2023-05-19T06:03:28;102927.47;;;11.01;100.00
48668;BME280;34453;52.198;5.004;2023-05-19T06:05:56;102925.22;;;11.09;100.00
48668;BME280;34453;52.198;5.004;2023-05-19T06:08:21;102931.03;;;11.14;100.00
48668;BME280;34453;52.198;5.004;2023-05-19T06:10:47;102927.03;;;11.23;100.00
48668;BME280;34453;52.198;5.004;2023-05-19T06:13:12;102915.97;;;11.32;100.00
48668;BME280;34453;52.198;5.004;2023-05-19T06:15:38;102928.56;;;11.40;100.00
48668;BME280;34453;52.198;5.004;2023-05-19T06:18:03;102921.66;;;11.39;100.00
48668;BME280;34453;52.198;5.004;2023-05-19T06:20:28;102918.56;;;11.47;100.00
48668;BME280;34453;52.198;5.004;2023-05-19T06:22:54;102912.09;;;11.52;100.00
48668;BME280;34453;52.198;5.004;2023-05-19T06:25:19;102906.94;;;11.65;100.00
48668;BME280;34453;52.198;5.004;2023-05-19T06:27:45;102915.78;;;11.77;100.00
48668;BME280;34453;52.198;5.004;2023-05-19T06:30:11;102902.28;;;11.83;100.00
48668;BME280;34453;52.198;5.004;2023-05-19T06:32:36;102906.22;;;11.90;100.00
48668;BME280;34453;52.198;5.004;2023-05-19T06:35:02;102907.41;;;11.99;100.00
48668;BME280;34453;52.198;5.004;2023-05-19T06:37:28;102901.63;;;12.07;100.00
48668;BME280;34453;52.198;5.004;2023-05-19T06:39:53;102905.44;;;12.15;100.00
48668;BME280;34453;52.198;5.004;2023-05-19T06:42:19;102894.25;;;12.26;100.00
48668;BME280;34453;52.198;5.004;2023-05-19T06:44:47;102890.06;;;12.36;100.00
48668;BME280;34453;52.198;5.004;2023-05-19T06:47:13;102887.75;;;12.44;100.00
48668;BME280;34453;52.198;5.004;2023-05-19T06:49:38;102886.19;;;12.55;100.00
48668;BME280;34453;52.198;5.004;2023-05-19T06:52:04;102885.97;;;12.58;100.00
48668;BME280;34453;52.198;5.004;2023-05-19T06:54:30;102882.94;;;12.77;100.00
48668;BME280;34453;52.198;5.004;2023-05-19T06:56:55;102888.28;;;12.88;100.00
48668;BME280;34453;52.198;5.004;2023-05-19T06:59:21;102887.66;;;12.97;100.00
48668;BME280;34453;52.198;5.004;2023-05-19T07:01:47;102880.72;;;12.96;100.00
48668;BME280;34453;52.198;5.004;2023-05-19T07:04:13;102884.69;;;13.02;100.00
48668;BME280;34453;52.198;5.004;2023-05-19T07:06:38;102883.63;;;13.17;100.00
48668;BME280;34453;52.198;5.004;2023-05-19T07:09:03;102876.59;;;13.31;100.00
48668;BME280;34453;52.198;5.004;2023-05-19T07:11:29;102888.41;;;13.49;100.00
48668;BME280;34453;52.198;5.004;2023-05-19T07:13:55;102879.34;;;13.53;100.00
48668;BME280;34453;52.198;5.004;2023-05-19T07:16:20;102882.44;;;13.71;100.00
48668;BME280;34453;52.198;5.004;2023-05-19T07:18:46;102877.56;;;13.78;100.00
48668;BME280;34453;52.198;5.004;2023-05-19T07:21:11;102871.84;;;13.84;100.00
48668;BME280;34453;52.198;5.004;2023-05-19T07:23:37;102880.25;;;13.89;100.00
48668;BME280;34453;52.198;5.004;2023-05-19T07:26:02;102869.84;;;13.87;100.00
48668;BME280;34453;52.198;5.004;2023-05-19T07:28:28;102874.78;;;13.92;100.00
48668;BME280;34453;52.198;5.004;2023-05-19T07:30:53;102873.00;;;14.04;100.00
48668;BME280;34453;52.198;5.004;2023-05-19T07:33:18;102875.78;;;14.14;100.00
48668;BME280;34453;52.198;5.004;2023-05-19T07:35:44;102873.16;;;14.14;100.00
48668;BME280;34453;52.198;5.004;2023-05-19T07:38:10;102864.06;;;14.18;100.00
48668;BME280;34453;52.198;5.004;2023-05-19T07:40:36;102863.88;;;14.21;100.00
48668;BME280;34453;52.198;5.004;2023-05-19T07:43:01;102854.75;;;14.25;100.00
48668;BME280;34453;52.198;5.004;2023-05-19T07:45:27;102858.75;;;14.42;100.00
48668;BME280;34453;52.198;5.004;2023-05-19T07:47:53;102855.66;;;14.48;100.00
48668;BME280;34453;52.198;5.004;2023-05-19T07:50:18;102860.78;;;14.49;100.00
48668;BME280;34453;52.198;5.004;2023-05-19T07:52:44;102863.31;;;14.51;100.00
48668;BME280;34453;52.198;5.004;2023-05-19T07:55:09;102863.50;;;14.61;100.00
48668;BME280;34453;52.198;5.004;2023-05-19T07:57:36;102859.41;;;14.79;100.00
48668;BME280;34453;52.198;5.004;2023-05-19T08:00:01;102861.31;;;15.00;100.00
48668;BME280;34453;52.198;5.004;2023-05-19T08:02:32;102855.94;;;15.12;100.00
48668;BME280;34453;52.198;5.004;2023-05-19T08:04:57;102846.66;;;15.18;100.00
48668;BME280;34453;52.198;5.004;2023-05-19T08:07:23;102841.38;;;15.29;100.00
48668;BME280;34453;52.198;5.004;2023-05-19T08:09:48;102845.44;;;15.33;100.00
48668;BME280;34453;52.198;5.004;2023-05-19T08:12:14;102835.84;;;15.44;100.00
48668;BME280;34453;52.198;5.004;2023-05-19T08:14:39;102826.50;;;15.40;100.00
48668;BME280;34453;52.198;5.004;2023-05-19T08:17:05;102832.53;;;15.63;100.00
48668;BME280;34453;52.198;5.004;2023-05-19T08:19:30;102826.91;;;15.56;100.00
48668;BME280;34453;52.198;5.004;2023-05-19T08:21:56;102824.34;;;15.77;100.00
48668;BME280;34453;52.198;5.004;2023-05-19T08:24:22;102819.06;;;15.98;100.00
48668;BME280;34453;52.198;5.004;2023-05-19T08:26:47;102827.63;;;16.11;100.00
48668;BME280;34453;52.198;5.004;2023-05-19T08:29:13;102829.00;;;16.27;100.00
48668;BME280;34453;52.198;5.004;2023-05-19T08:31:39;102828.16;;;16.26;100.00
48668;BME280;34453;52.198;5.004;2023-05-19T08:34:04;102816.69;;;16.37;100.00
48668;BME280;34453;52.198;5.004;2023-05-19T08:36:30;102816.31;;;16.51;100.00
48668;BME280;34453;52.198;5.004;2023-05-19T08:38:55;102814.84;;;16.58;100.00
48668;BME280;34453;52.198;5.004;2023-05-19T08:41:21;102806.25;;;16.76;100.00
48668;BME280;34453;52.198;5.004;2023-05-19T08:43:47;102807.31;;;16.85;100.00
48668;BME280;34453;52.198;5.004;2023-05-19T08:46:15;102807.47;;;16.93;100.00
48668;BME280;34453;52.198;5.004;2023-05-19T08:48:42;102803.19;;;17.02;100.00
48668;BME280;34453;52.198;5.004;2023-05-19T08:51:38;102794.13;;;17.14;100.00
48668;BME280;34453;52.198;5.004;2023-05-19T08:54:14;102795.25;;;17.11;100.00
48668;BME280;34453;52.198;5.004;2023-05-19T08:56:42;102793.88;;;17.27;100.00
48668;BME280;34453;52.198;5.004;2023-05-19T08:59:07;102795.00;;;17.34;100.00
48668;BME280;34453;52.198;5.004;2023-05-19T09:01:33;102793.34;;;17.43;100.00
48668;BME280;34453;52.198;5.004;2023-05-19T09:03:59;102789.72;;;17.44;100.00
48668;BME280;34453;52.198;5.004;2023-05-19T09:06:25;102788.88;;;17.53;100.00
48668;BME280;34453;52.198;5.004;2023-05-19T09:08:51;102791.41;;;17.54;100.00
48668;BME280;34453;52.198;5.004;2023-05-19T09:11:16;102785.81;;;17.67;100.00
48668;BME280;34453;52.198;5.004;2023-05-19T09:13:42;102793.91;;;17.85;100.00
48668;BME280;34453;52.198;5.004;2023-05-19T09:16:07;102790.84;;;17.90;100.00
48668;BME280;34453;52.198;5.004;2023-05-19T09:18:33;102780.53;;;17.87;100.00
48668;BME280;34453;52.198;5.004;2023-05-19T09:21:00;102783.13;;;18.06;100.00
48668;BME280;34453;52.198;5.004;2023-05-19T09:23:33;102790.09;;;18.07;100.00
48668;BME280;34453;52.198;5.004;2023-05-19T09:26:03;102792.59;;;18.09;100.00
48668;BME280;34453;52.198;5.004;2023-05-19T09:28:32;102785.78;;;18.06;100.00
48668;BME280;34453;52.198;5.004;2023-05-19T09:30:59;102787.19;;;18.10;100.00
48668;BME280;34453;52.198;5.004;2023-05-19T09:33:25;102775.47;;;18.13;100.00
48668;BME280;34453;52.198;5.004;2023-05-19T09:35:55;102788.78;;;18.31;100.00
48668;BME280;34453;52.198;5.004;2023-05-19T09:38:23;102782.47;;;18.32;100.00
48668;BME280;34453;52.198;5.004;2023-05-19T09:40:48;102787.19;;;18.10;100.00
48668;BME280;34453;52.198;5.004;2023-05-19T09:43:14;102779.56;;;18.35;100.00
48668;BME280;34453;52.198;5.004;2023-05-19T09:45:40;102782.63;;;18.68;100.00
48668;BME280;34453;52.198;5.004;2023-05-19T09:48:06;102775.28;;;18.89;100.00
48668;BME280;34453;52.198;5.004;2023-05-19T09:50:32;102778.22;;;18.86;100.00
48668;BME280;34453;52.198;5.004;2023-05-19T09:52:58;102785.06;;;19.07;100.00
48668;BME280;34453;52.198;5.004;2023-05-19T09:55:27;102784.25;;;19.24;100.00
48668;BME280;34453;52.198;5.004;2023-05-19T09:57:54;102779.41;;;19.37;100.00
48668;BME280;34453;52.198;5.004;2023-05-19T10:00:25;102777.13;;;19.42;100.00
48668;BME280;34453;52.198;5.004;2023-05-19T10:02:51;102777.34;;;19.49;100.00
48668;BME280;34453;52.198;5.004;2023-05-19T10:05:18;102780.97;;;19.66;100.00
48668;BME280;34453;52.198;5.004;2023-05-19T10:07:45;102776.41;;;19.76;100.00
48668;BME280;34453;52.198;5.004;2023-05-19T10:10:13;102783.47;;;19.67;100.00
48668;BME280;34453;52.198;5.004;2023-05-19T10:12:40;102779.13;;;19.84;100.00
48668;BME280;34453;52.198;5.004;2023-05-19T10:15:10;102776.34;;;19.68;100.00
48668;BME280;34453;52.198;5.004;2023-05-19T10:17:40;102769.34;;;19.67;100.00
48668;BME280;34453;52.198;5.004;2023-05-19T10:20:10;102760.03;;;19.63;100.00
48668;BME280;34453;52.198;5.004;2023-05-19T10:22:37;102771.28;;;19.75;100.00
48668;BME280;34453;52.198;5.004;2023-05-19T10:25:04;102767.50;;;20.03;100.00
48668;BME280;34453;52.198;5.004;2023-05-19T10:27:34;102776.59;;;20.01;100.00
48668;BME280;34453;52.198;5.004;2023-05-19T10:30:14;102766.53;;;20.13;100.00
48668;BME280;34453;52.198;5.004;2023-05-19T10:32:42;102766.44;;;19.96;100.00
48668;BME280;34453;52.198;5.004;2023-05-19T10:35:29;102760.66;;;19.75;100.00
48668;BME280;34453;52.198;5.004;2023-05-19T10:38:20;102763.47;;;19.73;100.00
48668;BME280;34453;52.198;5.004;2023-05-19T10:43:20;102759.44;;;19.69;100.00
48668;BME280;34453;52.198;5.004;2023-05-19T10:45:52;102743.38;;;19.97;100.00
48668;BME280;34453;52.198;5.004;2023-05-19T10:48:21;102746.03;;;19.97;100.00
48668;BME280;34453;52.198;5.004;2023-05-19T10:50:47;102738.38;;;20.28;100.00
48668;BME280;34453;52.198;5.004;2023-05-19T10:53:14;102750.81;;;20.19;100.00
48668;BME280;34453;52.198;5.004;2023-05-19T10:58:14;102748.88;;;20.38;100.00
48668;BME280;34453;52.198;5.004;2023-05-19T11:00:40;102743.59;;;20.46;100.00
48668;BME280;34453;52.198;5.004;2023-05-19T11:03:13;102742.41;;;20.83;100.00
48668;BME280;34453;52.198;5.004;2023-05-19T11:05:39;102742.09;;;20.94;100.00
48668;BME280;34453;52.198;5.004;2023-05-19T11:08:05;102742.94;;;20.95;100.00
48668;BME280;34453;52.198;5.004;2023-05-19T11:10:35;102736.97;;;21.25;100.00
48668;BME280;34453;52.198;5.004;2023-05-19T11:13:03;102726.84;;;21.45;100.00
48668;BME280;34453;52.198;5.004;2023-05-19T11:15:33;102719.88;;;21.44;100.00
48668;BME280;34453;52.198;5.004;2023-05-19T11:18:00;102733.19;;;21.44;100.00
48668;BME280;34453;52.198;5.004;2023-05-19T11:20:28;102735.50;;;21.47;100.00
48668;BME280;34453;52.198;5.004;2023-05-19T11:23:04;102734.34;;;21.50;100.00
48668;BME280;34453;52.198;5.004;2023-05-19T11:25:45;102739.47;;;21.10;100.00
48668;BME280;34453;52.198;5.004;2023-05-19T11:28:12;102736.50;;;21.46;100.00
48668;BME280;34453;52.198;5.004;2023-05-19T11:30:43;102732.47;;;21.34;100.00
48668;BME280;34453;52.198;5.004;2023-05-19T11:33:09;102730.50;;;21.28;100.00
48668;BME280;34453;52.198;5.004;2023-05-19T11:35:35;102719.34;;;21.24;100.00
48668;BME280;34453;52.198;5.004;2023-05-19T11:38:01;102731.78;;;21.07;100.00
48668;BME280;34453;52.198;5.004;2023-05-19T11:40:28;102734.28;;;21.01;100.00
48668;BME280;34453;52.198;5.004;2023-05-19T11:42:54;102728.78;;;20.94;100.00
48668;BME280;34453;52.198;5.004;2023-05-19T11:45:24;102724.16;;;20.88;100.00
48668;BME280;34453;52.198;5.004;2023-05-19T11:47:50;102726.16;;;21.02;100.00
48668;BME280;34453;52.198;5.004;2023-05-19T11:50:16;102718.66;;;21.14;100.00
48668;BME280;34453;52.198;5.004;2023-05-19T11:52:45;102718.00;;;21.20;100.00
48668;BME280;34453;52.198;5.004;2023-05-19T11:55:15;102720.81;;;21.19;100.00
48668;BME280;34453;52.198;5.004;2023-05-19T11:57:49;102711.53;;;21.06;100.00
48668;BME280;34453;52.198;5.004;2023-05-19T12:00:14;102717.50;;;21.00;100.00
48668;BME280;34453;52.198;5.004;2023-05-19T12:02:40;102719.13;;;20.85;100.00
48668;BME280;34453;52.198;5.004;2023-05-19T12:05:06;102719.13;;;20.77;100.00
48668;BME280;34453;52.198;5.004;2023-05-19T12:07:31;102707.00;;;20.90;100.00
48668;BME280;34453;52.198;5.004;2023-05-19T12:09:58;102716.00;;;20.98;100.00
48668;BME280;34453;52.198;5.004;2023-05-19T12:12:24;102711.03;;;21.11;100.00
48668;BME280;34453;52.198;5.004;2023-05-19T12:14:51;102706.22;;;21.15;100.00
48668;BME280;34453;52.198;5.004;2023-05-19T12:17:20;102708.34;;;21.03;100.00
48668;BME280;34453;52.198;5.004;2023-05-19T12:19:49;102706.84;;;21.00;100.00
48668;BME280;34453;52.198;5.004;2023-05-19T12:22:18;102701.22;;;21.03;100.00
48668;BME280;34453;52.198;5.004;2023-05-19T12:24:45;102701.72;;;20.99;100.00
48668;BME280;34453;52.198;5.004;2023-05-19T12:27:23;102713.19;;;21.24;100.00
48668;BME280;34453;52.198;5.004;2023-05-19T12:29:54;102709.69;;;21.40;100.00
48668;BME280;34453;52.198;5.004;2023-05-19T12:32:29;102696.88;;;21.51;100.00
48668;BME280;34453;52.198;5.004;2023-05-19T12:34:58;102694.06;;;21.28;100.00
48668;BME280;34453;52.198;5.004;2023-05-19T12:37:27;102690.91;;;21.17;100.00
48668;BME280;34453;52.198;5.004;2023-05-19T12:39:54;102693.22;;;21.20;100.00
48668;BME280;34453;52.198;5.004;2023-05-19T12:42:20;102698.03;;;21.24;100.00
48668;BME280;34453;52.198;5.004;2023-05-19T12:44:50;102698.72;;;21.18;100.00
48668;BME280;34453;52.198;5.004;2023-05-19T12:47:19;102691.59;;;21.43;100.00
48668;BME280;34453;52.198;5.004;2023-05-19T12:52:30;102686.91;;;21.29;100.00
48668;BME280;34453;52.198;5.004;2023-05-19T12:55:06;102685.56;;;21.66;100.00
48668;BME280;34453;52.198;5.004;2023-05-19T12:57:36;102678.53;;;21.73;100.00
48668;BME280;34453;52.198;5.004;2023-05-19T13:02:41;102674.94;;;21.41;100.00
48668;BME280;34453;52.198;5.004;2023-05-19T13:05:19;102681.22;;;21.65;100.00